createdAt,value
2019-05-02T00:01:39.336Z,98807.63
2019-05-02T00:04:12.397Z,98799.11
2019-05-02T00:06:44.280Z,98769.31
2019-05-02T00:09:14.534Z,98749.25
2019-05-02T00:11:57.683Z,98746.88
2019-05-02T00:14:17.450Z,98738.55
2019-05-02T00:16:49.411Z,98724.23
2019-05-02T00:19:19.473Z,98720.98
2019-05-02T00:21:49.645Z,98713.70
2019-05-02T00:24:19.769Z,98706.45
2019-05-02T00:26:49.978Z,98702.14
2019-05-02T00:29:23.738Z,98694.45
2019-05-02T00:31:53.966Z,98686.22
2019-05-02T00:34:24.555Z,98691.42
2019-05-02T00:36:54.714Z,98692.91
2019-05-02T00:39:24.836Z,98691.58
2019-05-02T00:41:54.984Z,98681.06
2019-05-02T00:44:25.129Z,98685.28
2019-05-02T00:46:57.995Z,98678.93
2019-05-02T00:49:30.829Z,98683.45
2019-05-02T00:52:01.265Z,98678.83
2019-05-02T00:54:31.859Z,98676.35
2019-05-02T00:57:02.047Z,98662.81
2019-05-02T00:59:32.156Z,98664.34
2019-05-02T01:02:18.262Z,98658.49
2019-05-02T01:04:48.833Z,98649.12
2019-05-02T01:07:20.473Z,98644.11
2019-05-02T01:09:50.818Z,98636.77
2019-05-02T01:12:26.513Z,98634.43
2019-05-02T01:14:52.849Z,98625.55
2019-05-02T01:17:26.132Z,98620.53
2019-05-02T01:19:54.832Z,98613.00
2019-05-02T01:22:24.980Z,98607.94
2019-05-02T01:24:55.111Z,98607.64
2019-05-02T01:27:36.118Z,98609.82
2019-05-02T01:30:22.513Z,98599.52
2019-05-02T01:33:07.854Z,98597.22
2019-05-02T01:36:06.443Z,98588.92
2019-05-02T01:38:41.767Z,98591.98
2019-05-02T01:41:11.966Z,98581.12
2019-05-02T01:43:42.118Z,98572.28
2019-05-02T01:46:12.236Z,98571.62
2019-05-02T01:48:45.907Z,98566.92
2019-05-02T01:51:14.330Z,98559.57
2019-05-02T01:53:44.456Z,98557.27
2019-05-02T01:56:14.562Z,98548.92
2019-05-02T01:58:44.680Z,98544.59
2019-05-02T02:01:16.082Z,98543.45
2019-05-02T02:03:46.984Z,98419.94
2019-05-02T02:06:17.270Z,98536.47
2019-05-02T02:08:47.477Z,98530.67
2019-05-02T02:11:17.600Z,98520.98
2019-05-02T02:13:47.714Z,98516.65
2019-05-02T02:16:17.831Z,98503.24
2019-05-02T02:18:58.941Z,98507.80
2019-05-02T02:21:57.559Z,98502.28
2019-05-02T02:24:31.414Z,98483.51
2019-05-02T02:27:01.585Z,98484.84
2019-05-02T02:29:31.723Z,98477.30
2019-05-02T02:32:01.852Z,98473.44
2019-05-02T02:34:32.588Z,98464.40
2019-05-02T02:37:05.558Z,98471.28
2019-05-02T02:39:34.661Z,98466.77
2019-05-02T02:42:04.931Z,98461.09
2019-05-02T02:44:42.082Z,98450.52
2019-05-02T02:47:18.823Z,98451.02
2019-05-02T02:49:44.100Z,98432.39
2019-05-02T02:52:14.275Z,98418.59
2019-05-02T02:54:44.995Z,98408.72
2019-05-02T02:57:26.050Z,98412.39
2019-05-02T02:59:47.890Z,98419.28
2019-05-02T03:02:18.001Z,98426.00
2019-05-02T03:04:48.192Z,98424.64
2019-05-02T03:07:25.915Z,98420.77
2019-05-02T03:09:50.223Z,98411.68
2019-05-02T03:12:41.455Z,98404.30
2019-05-02T03:15:20.913Z,98394.91
2019-05-02T03:17:47.289Z,98396.25
2019-05-02T03:20:17.421Z,98409.16
2019-05-02T03:22:47.518Z,98408.03
2019-05-02T03:25:25.053Z,98400.62
2019-05-02T03:27:50.938Z,98401.27
2019-05-02T03:30:32.339Z,98393.21
2019-05-02T03:33:06.426Z,98389.69
2019-05-02T03:35:40.009Z,98396.57
2019-05-02T03:37:56.554Z,98384.01
2019-05-02T03:40:32.298Z,98379.63
2019-05-02T03:42:58.910Z,98383.98
2019-05-02T03:45:32.078Z,98375.29
2019-05-02T03:48:01.842Z,98376.63
2019-05-02T03:50:35.067Z,98370.20
2019-05-02T03:53:03.807Z,98361.32
2019-05-02T03:55:34.480Z,98356.48
2019-05-02T03:58:13.369Z,98349.11
2019-05-02T04:00:36.863Z,98351.26
2019-05-02T04:03:06.988Z,98343.56
2019-05-02T04:05:40.376Z,98347.77
2019-05-02T04:08:20.081Z,98347.42
2019-05-02T04:11:13.961Z,98349.97
2019-05-02T04:13:44.346Z,98339.25
2019-05-02T04:16:17.594Z,98348.94
2019-05-02T04:18:55.667Z,98349.28
2019-05-02T04:21:25.897Z,98352.63
2019-05-02T04:24:06.672Z,98352.41
2019-05-02T04:26:27.114Z,98349.71
2019-05-02T04:28:57.757Z,98355.17
2019-05-02T04:31:31.730Z,98352.33
2019-05-02T04:33:59.990Z,98337.52
2019-05-02T04:36:30.171Z,98338.67
2019-05-02T04:39:05.888Z,98345.50
2019-05-02T04:41:34.421Z,98342.95
2019-05-02T04:44:04.118Z,98342.39
2019-05-02T04:46:34.245Z,98332.61
2019-05-02T04:49:04.409Z,98333.39
2019-05-02T04:51:34.781Z,98332.95
2019-05-02T04:54:04.994Z,98327.09
2019-05-02T04:56:42.263Z,98325.28
2019-05-02T04:59:16.541Z,98317.37
2019-05-02T05:01:43.449Z,98318.95
2019-05-02T05:04:10.634Z,98319.44
2019-05-02T05:06:46.361Z,98328.09
2019-05-02T05:09:15.011Z,98325.11
2019-05-02T05:11:45.452Z,98326.77
2019-05-02T05:14:17.991Z,98317.98
2019-05-02T05:16:51.673Z,98313.91
2019-05-02T05:19:23.002Z,98318.58
2019-05-02T05:21:58.870Z,98324.66
2019-05-02T05:24:53.202Z,98322.57
2019-05-02T05:27:23.370Z,98316.37
2019-05-02T05:29:58.609Z,98315.95
2019-05-02T05:32:28.185Z,98310.48
2019-05-02T05:35:03.511Z,98308.55
2019-05-02T05:37:30.363Z,98313.50
2019-05-02T05:40:00.498Z,98311.81
2019-05-02T05:42:33.362Z,98317.98
2019-05-02T05:45:03.925Z,98322.98
2019-05-02T05:47:34.433Z,98322.88
2019-05-02T05:50:04.894Z,98329.98
2019-05-02T05:52:38.717Z,98321.66
2019-05-02T05:55:07.871Z,98325.70
2019-05-02T05:57:38.546Z,98326.58
2019-05-02T06:00:15.973Z,98322.69
2019-05-02T06:02:52.752Z,98322.20
2019-05-02T06:05:13.197Z,98320.62
2019-05-02T06:07:44.969Z,98323.45
2019-05-02T06:10:15.278Z,98332.81
2019-05-02T06:12:45.707Z,98329.57
2019-05-02T06:15:15.864Z,98330.18
2019-05-02T06:17:45.966Z,98325.56
2019-05-02T06:20:16.194Z,98316.99
2019-05-02T06:22:46.322Z,98317.03
2019-05-02T06:25:17.011Z,98317.84
2019-05-02T06:27:47.163Z,98325.63
2019-05-02T06:30:17.693Z,98325.17
2019-05-02T06:32:50.072Z,98317.84
2019-05-02T06:35:21.090Z,98322.69
2019-05-02T06:37:52.019Z,98321.88
2019-05-02T06:40:22.166Z,98321.50
2019-05-02T06:42:53.258Z,98320.09
2019-05-02T06:45:23.593Z,98327.80
2019-05-02T06:47:56.005Z,98314.23
2019-05-02T06:50:26.128Z,98310.39
2019-05-02T06:52:56.286Z,98321.28
2019-05-02T06:55:28.202Z,98319.38
2019-05-02T06:58:02.835Z,98318.39
2019-05-02T07:00:38.475Z,98318.86
2019-05-02T07:03:05.049Z,98315.24
2019-05-02T07:05:34.834Z,98316.73
2019-05-02T07:08:06.611Z,98310.27
2019-05-02T07:10:44.394Z,98310.41
2019-05-02T07:13:11.066Z,98313.43
2019-05-02T07:16:10.343Z,98313.39
2019-05-02T07:18:47.659Z,98318.14
2019-05-02T07:21:17.303Z,98317.68
2019-05-02T07:23:48.676Z,98315.69
2019-05-02T07:26:21.590Z,98316.84
2019-05-02T07:28:51.105Z,98314.75
2019-05-02T07:31:21.277Z,98316.05
2019-05-02T07:33:52.511Z,98312.25
2019-05-02T07:36:22.626Z,98301.36
2019-05-02T07:38:57.653Z,98311.45
2019-05-02T07:41:28.913Z,98311.48
2019-05-02T07:43:57.515Z,98315.30
2019-05-02T07:46:27.817Z,98322.08
2019-05-02T07:48:57.909Z,98314.28
2019-05-02T07:51:28.182Z,98310.63
2019-05-02T07:53:58.330Z,98322.19
2019-05-02T07:56:28.471Z,98320.77
2019-05-02T07:58:58.624Z,98318.80
2019-05-02T08:01:28.813Z,98315.77
2019-05-02T08:04:04.170Z,98322.08
2019-05-02T08:06:35.382Z,98318.92
2019-05-02T08:09:07.158Z,98319.02
2019-05-02T08:11:38.531Z,98322.23
2019-05-02T08:14:08.882Z,98317.91
2019-05-02T08:16:39.033Z,98323.66
2019-05-02T08:19:09.220Z,98316.23
2019-05-02T08:21:39.334Z,98326.95
2019-05-02T08:24:09.493Z,98326.27
2019-05-02T08:27:07.867Z,98325.60
2019-05-02T08:29:38.231Z,98329.95
2019-05-02T08:32:08.388Z,98328.96
2019-05-02T08:34:38.546Z,98328.28
2019-05-02T08:37:08.655Z,98321.94
2019-05-02T08:39:38.833Z,98318.30
2019-05-02T08:42:10.022Z,98333.93
2019-05-02T08:44:50.826Z,98328.21
2019-05-02T08:47:18.780Z,98324.37
2019-05-02T08:49:43.837Z,98340.47
2019-05-02T08:52:14.000Z,98325.52
2019-05-02T08:54:44.186Z,98327.94
2019-05-02T08:57:14.293Z,98333.17
2019-05-02T08:59:45.775Z,98332.89
2019-05-02T09:02:15.959Z,98340.11
2019-05-02T09:04:57.933Z,98343.12
2019-05-02T09:07:17.956Z,98348.83
2019-05-02T09:09:48.206Z,98339.48
2019-05-02T09:12:20.053Z,98348.88
2019-05-02T09:14:52.200Z,98361.97
2019-05-02T09:17:35.425Z,98355.93
2019-05-02T09:20:02.419Z,98359.28
2019-05-02T09:22:26.270Z,98363.50
2019-05-02T09:24:56.418Z,98362.98
2019-05-02T09:27:26.535Z,98360.65
2019-05-02T09:29:56.822Z,98357.10
2019-05-02T09:32:26.978Z,98359.95
2019-05-02T09:35:02.164Z,98360.95
2019-05-02T09:37:31.974Z,98365.50
2019-05-02T09:40:02.288Z,98377.44
2019-05-02T09:42:32.638Z,98379.05
2019-05-02T09:45:03.196Z,98372.50
2019-05-02T09:47:46.942Z,98370.13
2019-05-02T09:50:12.798Z,98373.16
2019-05-02T09:52:44.224Z,98367.34
2019-05-02T09:55:16.793Z,98362.15
2019-05-02T09:57:47.276Z,98313.61
2019-05-02T10:00:36.494Z,98349.61
2019-05-02T10:03:07.493Z,98352.09
2019-05-02T10:05:37.636Z,98357.59
2019-05-02T10:08:11.024Z,98356.21
2019-05-02T10:10:44.250Z,98355.41
2019-05-02T10:13:12.187Z,98372.33
2019-05-02T10:15:42.947Z,98368.92
2019-05-02T10:18:14.719Z,98358.84
2019-05-02T10:20:45.072Z,98367.64
2019-05-02T10:23:19.550Z,98362.13
2019-05-02T10:25:47.142Z,98368.02
2019-05-02T10:28:18.382Z,98371.06
2019-05-02T10:30:52.562Z,98365.36
2019-05-02T10:33:22.527Z,98355.94
2019-05-02T10:35:52.854Z,98352.56
2019-05-02T10:38:23.055Z,98350.19
2019-05-02T10:40:59.342Z,98347.27
2019-05-02T10:43:25.982Z,98344.38
2019-05-02T10:46:01.901Z,98362.64
2019-05-02T10:48:33.767Z,98364.39
2019-05-02T10:51:25.625Z,98365.62
2019-05-02T10:53:56.395Z,98349.86
2019-05-02T10:56:25.278Z,98351.02
2019-05-02T10:58:55.415Z,98349.23
2019-05-02T11:01:27.227Z,98347.14
2019-05-02T11:03:58.848Z,98342.63
2019-05-02T11:06:29.071Z,98345.44
2019-05-02T11:08:59.225Z,98338.08
2019-05-02T11:11:29.362Z,98361.82
2019-05-02T11:14:15.164Z,98365.38
2019-05-02T11:17:08.861Z,98372.17
2019-05-02T11:19:43.460Z,98358.41
2019-05-02T11:22:13.582Z,98351.30
2019-05-02T11:24:43.712Z,98364.56
2019-05-02T11:27:13.825Z,98345.34
2019-05-02T11:29:43.994Z,98358.78
2019-05-02T11:32:14.236Z,98374.64
2019-05-02T11:34:44.364Z,98376.68
2019-05-02T11:37:14.507Z,98381.28
2019-05-02T11:39:50.700Z,98386.87
2019-05-02T11:42:17.659Z,98369.59
2019-05-02T11:44:48.326Z,98373.00
2019-05-02T11:47:24.827Z,98376.78
2019-05-02T11:49:53.877Z,98363.61
2019-05-02T11:52:22.710Z,98363.13
2019-05-02T11:54:53.915Z,98383.72
2019-05-02T11:57:28.494Z,98382.50
2019-05-02T11:59:59.352Z,98380.55
2019-05-02T12:02:58.129Z,98387.66
2019-05-02T12:05:35.820Z,98370.36
2019-05-02T12:08:07.837Z,98378.77
2019-05-02T12:10:37.770Z,98386.69
2019-05-02T12:13:11.957Z,98386.22
2019-05-02T12:15:42.162Z,98378.88
2019-05-02T12:18:12.150Z,98380.30
2019-05-02T12:20:42.735Z,98391.56
2019-05-02T12:23:13.183Z,98394.40
2019-05-02T12:25:43.277Z,98392.77
2019-05-02T12:28:16.477Z,98403.81
2019-05-02T12:30:46.940Z,98389.66
2019-05-02T12:33:18.015Z,98375.42
2019-05-02T12:35:48.183Z,98383.72
2019-05-02T12:38:18.275Z,98386.63
2019-05-02T12:40:48.452Z,98385.89
2019-05-02T12:43:20.337Z,98400.95
2019-05-02T12:45:52.228Z,98396.08
2019-05-02T12:48:22.329Z,98400.73
2019-05-02T12:50:52.923Z,98401.47
2019-05-02T12:53:24.440Z,98404.28
2019-05-02T12:55:55.948Z,98401.32
2019-05-02T12:58:27.787Z,98410.05
2019-05-02T13:00:58.190Z,98398.74
2019-05-02T13:03:43.627Z,98400.69
2019-05-02T13:06:14.050Z,98413.64
2019-05-02T13:08:52.481Z,98427.25
2019-05-02T13:11:52.290Z,98413.98
2019-05-02T13:14:27.937Z,98419.33
2019-05-02T13:17:01.382Z,98414.72
2019-05-02T13:19:38.127Z,98414.00
2019-05-02T13:22:21.787Z,98423.16
2019-05-02T13:24:58.108Z,98457.57
2019-05-02T13:27:32.134Z,98439.95
2019-05-02T13:30:03.389Z,98449.81
2019-05-02T13:32:39.316Z,98445.27
2019-05-02T13:35:27.062Z,98455.64
2019-05-02T13:38:02.717Z,98442.55
2019-05-02T13:40:41.810Z,98428.75
2019-05-02T13:43:13.462Z,98360.08
2019-05-02T13:45:50.259Z,98462.70
2019-05-02T13:48:21.790Z,98471.54
2019-05-02T13:50:54.977Z,98470.56
2019-05-02T13:53:26.306Z,98468.34
2019-05-02T13:56:15.446Z,98478.55
2019-05-02T13:58:45.595Z,98484.77
2019-05-02T14:01:16.217Z,98481.86
2019-05-02T14:03:46.709Z,98473.86
2019-05-02T14:06:16.922Z,98487.59
2019-05-02T14:08:53.375Z,98490.52
2019-05-02T14:11:47.829Z,98487.59
2019-05-02T14:14:18.007Z,98490.66
2019-05-02T14:16:48.165Z,98485.30
2019-05-02T14:19:18.315Z,98488.24
2019-05-02T14:21:48.480Z,98500.66
2019-05-02T14:24:22.926Z,98502.69
2019-05-02T14:26:54.309Z,98530.56
2019-05-02T14:29:24.452Z,98519.29
2019-05-02T14:31:55.858Z,98531.29
2019-05-02T14:35:02.418Z,98523.91
2019-05-02T14:37:32.262Z,98514.78
2019-05-02T14:40:23.690Z,98523.29
2019-05-02T14:42:57.729Z,98526.56
2019-05-02T14:45:30.781Z,98521.80
2019-05-02T14:48:04.046Z,98516.93
2019-05-02T14:50:29.395Z,98523.63
2019-05-02T14:53:04.243Z,98528.09
2019-05-02T14:55:37.435Z,98523.56
2019-05-02T14:58:07.689Z,98514.94
2019-05-02T15:00:45.773Z,98515.13
2019-05-02T15:03:13.207Z,98494.92
2019-05-02T15:05:43.328Z,98504.72
2019-05-02T15:08:13.480Z,98501.81
2019-05-02T15:10:52.374Z,98513.80
2019-05-02T15:13:15.469Z,98513.78
2019-05-02T15:15:45.603Z,98512.13
2019-05-02T15:18:17.448Z,98502.27
2019-05-02T15:20:47.595Z,98519.52
2019-05-02T15:23:19.822Z,98518.69
2019-05-02T15:25:52.502Z,98513.28
2019-05-02T15:28:22.863Z,98505.21
2019-05-02T15:31:12.362Z,98516.65
2019-05-02T15:33:49.251Z,98505.02
2019-05-02T15:36:19.372Z,98508.03
2019-05-02T15:38:49.528Z,98518.53
2019-05-02T15:41:19.649Z,98519.53
2019-05-02T15:43:49.797Z,98511.92
2019-05-02T15:46:26.523Z,98520.02
2019-05-02T15:48:52.092Z,98548.02
2019-05-02T15:51:23.084Z,98567.45
2019-05-02T15:54:08.237Z,98578.92
2019-05-02T15:56:37.846Z,98567.90
2019-05-02T15:59:11.012Z,98579.20
2019-05-02T16:01:52.513Z,98589.08
2019-05-02T16:04:31.989Z,98444.03
2019-05-02T16:07:06.994Z,98612.42
2019-05-02T16:09:34.366Z,98609.14
2019-05-02T16:12:04.904Z,98613.16
2019-05-02T16:14:36.142Z,98607.09
2019-05-02T16:17:06.433Z,98595.84
2019-05-02T16:19:42.594Z,98606.16
2019-05-02T16:22:15.959Z,98618.39
2019-05-02T16:24:48.825Z,98635.19
2019-05-02T16:27:21.981Z,98639.78
2019-05-02T16:29:51.013Z,98660.38
2019-05-02T16:32:30.936Z,98653.38
2019-05-02T16:35:12.332Z,98666.96
2019-05-02T16:37:35.769Z,98670.87
2019-05-02T16:40:07.883Z,98679.50
2019-05-02T16:42:38.238Z,98701.27
2019-05-02T16:45:09.349Z,98703.94
2019-05-02T16:47:39.832Z,98717.51
2019-05-02T16:50:12.224Z,98729.42
2019-05-02T16:52:43.633Z,98734.30
2019-05-02T16:55:20.790Z,98735.33
2019-05-02T16:57:49.439Z,98743.06
2019-05-02T17:00:22.692Z,98753.16
2019-05-02T17:02:53.156Z,98751.22
2019-05-02T17:05:24.630Z,98757.88
2019-05-02T17:08:19.839Z,98773.05
2019-05-02T17:10:56.711Z,98773.16
2019-05-02T17:13:27.419Z,98780.27
2019-05-02T17:15:59.141Z,98775.94
2019-05-02T17:18:29.283Z,98785.69
2019-05-02T17:20:59.441Z,98797.68
2019-05-02T17:23:29.726Z,98800.58
2019-05-02T17:26:01.619Z,98811.05
2019-05-02T17:28:32.089Z,98825.84
2019-05-02T17:31:02.331Z,98832.40
2019-05-02T17:33:32.472Z,98840.00
2019-05-02T17:36:02.743Z,98848.70
2019-05-02T17:38:33.242Z,98853.30
2019-05-02T17:41:07.669Z,98865.53
2019-05-02T17:43:37.409Z,98874.36
2019-05-02T17:46:12.831Z,98875.66
2019-05-02T17:48:42.921Z,98878.23
2019-05-02T17:51:28.367Z,98885.80
2019-05-02T17:53:56.025Z,98887.67
2019-05-02T17:56:26.288Z,98901.77
2019-05-02T17:58:58.339Z,98903.95
2019-05-02T18:01:38.610Z,98905.91
2019-05-02T18:04:12.542Z,98912.91
2019-05-02T18:06:41.701Z,98918.83
2019-05-02T18:09:12.437Z,98925.77
2019-05-02T18:11:42.597Z,98929.80
2019-05-02T18:14:19.747Z,98930.59
2019-05-02T18:16:47.035Z,98939.99
2019-05-02T18:19:23.599Z,98943.03
2019-05-02T18:22:03.569Z,98960.16
2019-05-02T18:24:32.768Z,98955.21
2019-05-02T18:27:03.946Z,98961.08
2019-05-02T18:29:42.703Z,98962.12
2019-05-02T18:32:12.945Z,98962.04
2019-05-02T18:34:44.735Z,98832.02
2019-05-02T18:37:14.989Z,98971.95
2019-05-02T18:39:50.911Z,98979.46
2019-05-02T18:42:22.100Z,98981.86
2019-05-02T18:44:52.996Z,98987.77
2019-05-02T18:47:24.764Z,98988.83
2019-05-02T18:50:00.907Z,98998.17
2019-05-02T18:52:37.276Z,99008.44
2019-05-02T18:54:58.624Z,99014.91
2019-05-02T18:57:29.625Z,99009.35
2019-05-02T19:00:02.008Z,99013.17
2019-05-02T19:02:35.441Z,99020.70
2019-05-02T19:05:06.089Z,99026.76
2019-05-02T19:07:36.520Z,99040.34
2019-05-02T19:10:07.453Z,99033.86
2019-05-02T19:12:38.363Z,99037.05
2019-05-02T19:15:08.611Z,99040.02
2019-05-02T19:17:43.244Z,99042.88
2019-05-02T19:20:33.282Z,99039.06
2019-05-02T19:23:03.526Z,99048.47
2019-05-02T19:25:33.802Z,99056.53
2019-05-02T19:28:12.108Z,99058.17
2019-05-02T19:30:43.577Z,99059.45
2019-05-02T19:33:13.845Z,99062.69
2019-05-02T19:35:46.876Z,99068.42
2019-05-02T19:38:17.174Z,99024.40
2019-05-02T19:40:49.708Z,99086.50
2019-05-02T19:43:19.863Z,99091.88
2019-05-02T19:45:53.819Z,99098.08
2019-05-02T19:48:22.693Z,99101.41
2019-05-02T19:50:52.966Z,99104.09
2019-05-02T19:53:23.244Z,99110.34
2019-05-02T19:55:57.178Z,99112.23
2019-05-02T19:58:26.708Z,99123.85
2019-05-02T20:00:57.130Z,99137.41
2019-05-02T20:03:27.427Z,99130.20
2019-05-02T20:06:02.413Z,99128.51
2019-05-02T20:08:29.762Z,99136.09
2019-05-02T20:11:02.246Z,99129.67
2019-05-02T20:13:32.855Z,99131.56
2019-05-02T20:16:12.675Z,99135.72
2019-05-02T20:18:47.188Z,99132.22
2019-05-02T20:21:29.066Z,99136.84
2019-05-02T20:24:01.481Z,99142.16
2019-05-02T20:26:32.502Z,99152.00
2019-05-02T20:29:02.986Z,99151.91
2019-05-02T20:31:33.458Z,99148.02
2019-05-02T20:34:04.128Z,99155.03
2019-05-02T20:36:34.482Z,99155.21
2019-05-02T20:39:08.650Z,99165.63
2019-05-02T20:41:38.989Z,99169.56
2019-05-02T20:44:09.124Z,99166.77
2019-05-02T20:46:39.254Z,99169.79
2019-05-02T20:49:09.381Z,99174.90
2019-05-02T20:51:42.384Z,99170.73
2019-05-02T20:54:12.867Z,99175.50
2019-05-02T20:56:42.998Z,99175.67
2019-05-02T20:59:13.198Z,99178.03
2019-05-02T21:01:43.342Z,99175.86
2019-05-02T21:04:13.494Z,99179.55
2019-05-02T21:07:05.435Z,99183.33
2019-05-02T21:09:48.279Z,99188.81
2019-05-02T21:12:18.588Z,99187.84
2019-05-02T21:14:49.840Z,99196.39
2019-05-02T21:17:21.986Z,99196.00
2019-05-02T21:19:51.824Z,99193.92
2019-05-02T21:22:25.643Z,99196.77
2019-05-02T21:24:58.038Z,99193.74
2019-05-02T21:27:28.793Z,99198.75
2019-05-02T21:29:59.264Z,99204.23
2019-05-02T21:32:29.528Z,99205.01
2019-05-02T21:34:59.734Z,99207.39
2019-05-02T21:37:31.834Z,99211.09
2019-05-02T21:40:02.755Z,99213.66
2019-05-02T21:42:33.077Z,99217.89
2019-05-02T21:45:03.631Z,99223.86
2019-05-02T21:47:33.823Z,99218.84
2019-05-02T21:50:12.469Z,99222.25
2019-05-02T21:52:47.243Z,99220.65
2019-05-02T21:55:32.360Z,99225.86
2019-05-02T21:58:02.767Z,99227.66
2019-05-02T22:00:54.298Z,99226.89
2019-05-02T22:03:26.131Z,99230.87
2019-05-02T22:05:57.467Z,99229.45
2019-05-02T22:08:27.582Z,99231.16
2019-05-02T22:10:57.966Z,99229.27
2019-05-02T22:13:28.136Z,99230.59
2019-05-02T22:15:58.475Z,99238.45
2019-05-02T22:18:28.596Z,99238.55
2019-05-02T22:20:58.724Z,99250.38
2019-05-02T22:23:28.847Z,99244.79
2019-05-02T22:25:58.971Z,99248.95
2019-05-02T22:28:29.087Z,99245.45
2019-05-02T22:30:59.257Z,99245.55
2019-05-02T22:33:29.384Z,99244.59
2019-05-02T22:36:01.786Z,99251.31
2019-05-02T22:38:45.750Z,99251.41
2019-05-02T22:41:15.893Z,99252.89
2019-05-02T22:43:46.030Z,99249.67
2019-05-02T22:46:35.129Z,99257.42
2019-05-02T22:49:06.800Z,99255.63
2019-05-02T22:51:36.917Z,99258.66
2019-05-02T22:54:07.040Z,99267.27
2019-05-02T22:56:37.265Z,99263.77
2019-05-02T22:59:08.484Z,99261.39
2019-05-02T23:01:38.630Z,99266.31
2019-05-02T23:04:08.769Z,99265.93
2019-05-02T23:06:39.049Z,99272.55
2019-05-02T23:09:09.302Z,99276.44
2019-05-02T23:11:39.592Z,99277.09
2019-05-02T23:14:09.795Z,99277.09
2019-05-02T23:16:42.325Z,99275.95
2019-05-02T23:19:12.828Z,99277.09
2019-05-02T23:21:42.971Z,99281.06
2019-05-02T23:24:23.748Z,99277.66
2019-05-02T23:27:28.401Z,99277.77
2019-05-02T23:29:58.528Z,99283.06
2019-05-02T23:32:29.018Z,99280.70
2019-05-02T23:34:59.145Z,99282.78
2019-05-02T23:37:29.276Z,99277.68
2019-05-02T23:39:59.457Z,99283.73
2019-05-02T23:42:29.602Z,99282.42
2019-05-02T23:44:59.708Z,99282.80
2019-05-02T23:47:30.023Z,99283.08
2019-05-02T23:50:00.125Z,99281.98
2019-05-02T23:52:31.576Z,99274.89
2019-05-02T23:55:03.022Z,99282.94
2019-05-02T23:57:33.362Z,99281.52
